createdAt,value
2022-10-03T00:00:46.203Z,1009.92
2022-10-03T00:01:46.229Z,1009.93
2022-10-03T00:02:46.535Z,1009.96
2022-10-03T00:03:46.224Z,1009.95
2022-10-03T00:04:46.800Z,1009.99
2022-10-03T00:05:46.155Z,1010.02
2022-10-03T00:06:46.462Z,1010.06
2022-10-03T00:07:46.135Z,1010.03
2022-10-03T00:08:46.094Z,1010.02
2022-10-03T00:09:46.914Z,1010.00
2022-10-03T00:10:46.075Z,1010.01
2022-10-03T00:11:46.054Z,1009.99
2022-10-03T00:12:46.056Z,1010.00
2022-10-03T00:13:46.024Z,1010.02
2022-10-03T00:14:46.012Z,1010.01
2022-10-03T00:15:46.061Z,1010.03
2022-10-03T00:16:45.990Z,1010.02
2022-10-03T00:17:45.994Z,1010.04
2022-10-03T00:18:53.166Z,1010.02
2022-10-03T00:19:45.946Z,1010.01
2022-10-03T00:20:45.940Z,1009.99
2022-10-03T00:21:45.926Z,1010.00
2022-10-03T00:22:45.925Z,1010.04
2022-10-03T00:23:45.898Z,1010.08
2022-10-03T00:24:45.888Z,1010.06
2022-10-03T00:25:45.857Z,1010.11
2022-10-03T00:26:45.866Z,1010.05
2022-10-03T00:27:45.863Z,1010.07
2022-10-03T00:28:45.837Z,1010.08
2022-10-03T00:29:45.807Z,1010.05
2022-10-03T00:30:45.806Z,1010.04
2022-10-03T00:31:45.864Z,1010.05
2022-10-03T00:32:45.798Z,1010.05
2022-10-03T00:33:45.758Z,1010.09
2022-10-03T00:34:45.765Z,1010.08
2022-10-03T00:35:45.728Z,1010.10
2022-10-03T00:36:45.756Z,1010.08
2022-10-03T00:37:45.715Z,1010.09
2022-10-03T00:38:45.696Z,1010.10
2022-10-03T00:39:45.678Z,1010.13
2022-10-03T00:40:45.678Z,1010.14
2022-10-03T00:41:45.668Z,1010.15
2022-10-03T00:42:45.656Z,1010.16
2022-10-03T00:43:45.634Z,1010.15
2022-10-03T00:44:45.619Z,1010.15
2022-10-03T00:45:45.606Z,1010.18
2022-10-03T00:46:45.679Z,1010.19
2022-10-03T00:47:45.597Z,1010.20
2022-10-03T00:48:45.577Z,1010.22
2022-10-03T00:49:45.557Z,1010.28
2022-10-03T00:50:45.550Z,1010.24
2022-10-03T00:51:45.540Z,1010.25
2022-10-03T00:52:45.539Z,1010.29
2022-10-03T00:53:45.503Z,1010.25
2022-10-03T00:54:45.497Z,1010.28
2022-10-03T00:55:45.479Z,1010.27
2022-10-03T00:56:45.471Z,1010.30
2022-10-03T00:57:45.464Z,1010.28
2022-10-03T00:58:45.438Z,1010.32
2022-10-03T00:59:48.133Z,1010.28
2022-10-03T01:00:45.436Z,1010.31
2022-10-03T01:01:45.475Z,1010.31
2022-10-03T01:02:45.387Z,1010.29
2022-10-03T01:03:45.372Z,1010.36
2022-10-03T01:04:45.356Z,1010.39
2022-10-03T01:05:45.346Z,1010.41
2022-10-03T01:06:45.346Z,1010.43
2022-10-03T01:07:45.335Z,1010.39
2022-10-03T01:08:45.307Z,1010.42
2022-10-03T01:09:45.293Z,1010.42
2022-10-03T01:10:45.278Z,1010.41
2022-10-03T01:11:45.268Z,1010.45
2022-10-03T01:12:45.247Z,1010.45
2022-10-03T01:13:45.236Z,1010.49
2022-10-03T01:14:45.227Z,1010.46
2022-10-03T01:15:45.239Z,1010.45
2022-10-03T01:16:45.216Z,1010.45
2022-10-03T01:17:45.185Z,1010.49
2022-10-03T01:18:45.195Z,1010.47
2022-10-03T01:19:45.150Z,1010.47
2022-10-03T01:20:45.185Z,1010.47
2022-10-03T01:21:45.159Z,1010.48
2022-10-03T01:22:45.163Z,1010.50
2022-10-03T01:23:45.097Z,1010.47
2022-10-03T01:24:45.077Z,1010.47
2022-10-03T01:25:45.067Z,1010.50
2022-10-03T01:26:45.068Z,1010.51
2022-10-03T01:27:45.057Z,1010.47
2022-10-03T01:28:45.036Z,1010.49
2022-10-03T01:29:45.006Z,1010.49
2022-10-03T01:30:45.017Z,1010.48
2022-10-03T01:31:45.074Z,1010.47
2022-10-03T01:32:44.997Z,1010.51
2022-10-03T01:33:44.954Z,1010.48
2022-10-03T01:34:44.954Z,1010.51
2022-10-03T01:35:44.926Z,1010.53
2022-10-03T01:36:44.916Z,1010.52
2022-10-03T01:37:44.915Z,1010.53
2022-10-03T01:38:44.898Z,1010.51
2022-10-03T01:39:44.874Z,1010.52
2022-10-03T01:40:44.867Z,1010.53
2022-10-03T01:41:44.856Z,1010.53
2022-10-03T01:42:44.867Z,1010.56
2022-10-03T01:43:44.827Z,1010.57
2022-10-03T01:44:44.827Z,1010.56
2022-10-03T01:45:44.807Z,1010.58
2022-10-03T01:46:44.853Z,1010.59
2022-10-03T01:47:44.809Z,1010.59
2022-10-03T01:48:44.765Z,1010.60
2022-10-03T01:49:44.748Z,1010.59
2022-10-03T01:50:44.738Z,1010.60
2022-10-03T01:51:44.727Z,1010.63
2022-10-03T01:52:44.730Z,1010.61
2022-10-03T01:53:44.697Z,1010.60
2022-10-03T01:54:44.686Z,1010.58
2022-10-03T01:55:44.667Z,1010.59
2022-10-03T01:56:44.665Z,1010.59
2022-10-03T01:57:44.657Z,1010.60
2022-10-03T01:58:44.668Z,1010.61
2022-10-03T01:59:44.626Z,1010.59
2022-10-03T02:00:44.675Z,1010.66
2022-10-03T02:01:44.641Z,1010.65
2022-10-03T02:02:44.596Z,1010.61
2022-10-03T02:03:44.557Z,1010.64
2022-10-03T02:04:44.547Z,1010.64
2022-10-03T02:05:44.536Z,1010.68
2022-10-03T02:06:44.530Z,1010.65
2022-10-03T02:07:44.507Z,1010.67
2022-10-03T02:08:44.518Z,1010.71
2022-10-03T02:09:44.477Z,1010.72
2022-10-03T02:10:44.467Z,1010.70
2022-10-03T02:11:44.456Z,1010.69
2022-10-03T02:12:44.457Z,1010.71
2022-10-03T02:13:44.445Z,1010.72
2022-10-03T02:14:44.424Z,1010.70
2022-10-03T02:15:44.478Z,1010.71
2022-10-03T02:16:44.406Z,1010.72
2022-10-03T02:17:44.376Z,1010.71
2022-10-03T02:18:44.387Z,1010.70
2022-10-03T02:19:44.346Z,1010.68
2022-10-03T02:20:44.336Z,1010.69
2022-10-03T02:21:44.328Z,1010.72
2022-10-03T02:22:44.316Z,1010.72
2022-10-03T02:23:44.324Z,1010.74
2022-10-03T02:24:44.286Z,1010.73
2022-10-03T02:25:44.279Z,1010.71
2022-10-03T02:26:44.276Z,1010.74
2022-10-03T02:27:44.247Z,1010.73
2022-10-03T02:28:44.264Z,1010.73
2022-10-03T02:29:44.228Z,1010.74
2022-10-03T02:30:44.213Z,1010.77
2022-10-03T02:31:44.268Z,1010.76
2022-10-03T02:32:44.215Z,1010.76
2022-10-03T02:33:44.236Z,1010.79
2022-10-03T02:34:44.157Z,1010.74
2022-10-03T02:35:44.147Z,1010.75
2022-10-03T02:36:44.136Z,1010.77
2022-10-03T02:37:44.125Z,1010.82
2022-10-03T02:38:44.138Z,1010.80
2022-10-03T02:39:44.086Z,1010.82
2022-10-03T02:40:44.079Z,1010.84
2022-10-03T02:41:44.067Z,1010.83
2022-10-03T02:42:44.057Z,1010.86
2022-10-03T02:43:44.066Z,1010.87
2022-10-03T02:44:44.037Z,1010.86
2022-10-03T02:45:44.042Z,1010.87
2022-10-03T02:46:44.016Z,1010.90
2022-10-03T02:47:43.987Z,1010.88
2022-10-03T02:48:43.998Z,1010.89
2022-10-03T02:49:43.967Z,1010.88
2022-10-03T02:50:43.967Z,1010.92
2022-10-03T02:51:43.945Z,1010.92
2022-10-03T02:52:43.928Z,1010.93
2022-10-03T02:53:43.928Z,1010.96
2022-10-03T02:54:43.906Z,1010.98
2022-10-03T02:55:43.888Z,1010.98
2022-10-03T02:56:43.889Z,1011.01
2022-10-03T02:57:43.857Z,1011.01
2022-10-03T02:58:43.868Z,1011.01
2022-10-03T02:59:43.845Z,1011.03
2022-10-03T03:00:43.850Z,1011.04
2022-10-03T03:01:43.943Z,1011.06
2022-10-03T03:02:43.812Z,1011.11
2022-10-03T03:03:43.817Z,1011.08
2022-10-03T03:04:43.777Z,1011.05
2022-10-03T03:05:43.768Z,1011.06
2022-10-03T03:06:43.776Z,1011.06
2022-10-03T03:07:43.756Z,1011.10
2022-10-03T03:08:43.760Z,1011.08
2022-10-03T03:09:43.712Z,1011.06
2022-10-03T03:10:43.698Z,1011.03
2022-10-03T03:11:43.684Z,1011.04
2022-10-03T03:12:43.678Z,1011.06
2022-10-03T03:13:43.669Z,1011.01
2022-10-03T03:14:43.647Z,1011.00
2022-10-03T03:15:43.628Z,1011.01
2022-10-03T03:16:43.763Z,1010.97
2022-10-03T03:17:43.600Z,1010.96
2022-10-03T03:18:43.609Z,1011.03
2022-10-03T03:19:43.579Z,1011.08
2022-10-03T03:20:43.572Z,1011.09
2022-10-03T03:21:43.578Z,1011.13
2022-10-03T03:22:43.549Z,1011.15
2022-10-03T03:23:43.540Z,1011.16
2022-10-03T03:24:43.508Z,1011.13
2022-10-03T03:25:43.501Z,1011.12
2022-10-03T03:26:43.488Z,1011.16
2022-10-03T03:27:43.498Z,1011.15
2022-10-03T03:28:43.466Z,1011.19
2022-10-03T03:29:43.479Z,1011.16
2022-10-03T03:30:43.447Z,1011.18
2022-10-03T03:31:43.971Z,1011.14
2022-10-03T03:32:43.415Z,1011.17
2022-10-03T03:33:43.408Z,1011.11
2022-10-03T03:34:43.378Z,1011.11
2022-10-03T03:35:43.367Z,1011.11
2022-10-03T03:36:43.348Z,1011.17
2022-10-03T03:37:43.339Z,1011.13
2022-10-03T03:38:43.357Z,1011.18
2022-10-03T03:39:43.317Z,1011.18
2022-10-03T03:40:43.308Z,1011.19
2022-10-03T03:41:43.288Z,1011.21
2022-10-03T03:42:43.303Z,1011.27
2022-10-03T03:43:43.277Z,1011.27
2022-10-03T03:44:43.258Z,1011.25
2022-10-03T03:45:43.277Z,1011.29
2022-10-03T03:46:43.229Z,1011.31
2022-10-03T03:47:43.224Z,1011.35
2022-10-03T03:48:43.227Z,1011.37
2022-10-03T03:49:43.187Z,1011.30
2022-10-03T03:50:43.189Z,1011.30
2022-10-03T03:51:43.169Z,1011.35
2022-10-03T03:52:43.157Z,1011.36
2022-10-03T03:53:43.157Z,1011.33
2022-10-03T03:54:43.157Z,1011.37
2022-10-03T03:55:43.108Z,1011.35
2022-10-03T03:56:43.106Z,1011.38
2022-10-03T03:57:43.087Z,1011.38
2022-10-03T03:58:43.099Z,1011.37
2022-10-03T03:59:43.065Z,1011.37
2022-10-03T04:00:43.097Z,1011.35
2022-10-03T04:01:43.461Z,1011.36
2022-10-03T04:02:43.018Z,1011.32
2022-10-03T04:03:43.027Z,1011.33
2022-10-03T04:04:42.998Z,1011.33
2022-10-03T04:05:42.981Z,1011.36
2022-10-03T04:06:42.976Z,1011.35
2022-10-03T04:07:42.963Z,1011.33
2022-10-03T04:08:42.977Z,1011.36
2022-10-03T04:09:42.929Z,1011.36
2022-10-03T04:10:42.918Z,1011.37
2022-10-03T04:11:43.169Z,1011.42
2022-10-03T04:12:42.888Z,1011.40
2022-10-03T04:13:42.908Z,1011.45
2022-10-03T04:14:42.867Z,1011.46
2022-10-03T04:15:42.849Z,1011.46
2022-10-03T04:16:42.907Z,1011.39
2022-10-03T04:17:42.827Z,1011.39
2022-10-03T04:18:42.828Z,1011.45
2022-10-03T04:19:42.788Z,1011.43
2022-10-03T04:20:42.795Z,1011.39
2022-10-03T04:21:42.980Z,1011.42
2022-10-03T04:22:42.788Z,1011.46
2022-10-03T04:23:42.755Z,1011.48
2022-10-03T04:24:42.747Z,1011.50
2022-10-03T04:25:42.727Z,1011.44
2022-10-03T04:26:42.716Z,1011.45
2022-10-03T04:27:42.743Z,1011.43
2022-10-03T04:28:42.697Z,1011.41
2022-10-03T04:29:42.690Z,1011.45
2022-10-03T04:30:42.665Z,1011.41
2022-10-03T04:31:43.229Z,1011.46
2022-10-03T04:32:42.639Z,1011.46
2022-10-03T04:33:42.636Z,1011.46
2022-10-03T04:34:42.599Z,1011.42
2022-10-03T04:35:42.587Z,1011.43
2022-10-03T04:36:42.587Z,1011.47
2022-10-03T04:37:42.557Z,1011.42
2022-10-03T04:38:42.557Z,1011.44
2022-10-03T04:39:42.577Z,1011.44
2022-10-03T04:40:42.529Z,1011.47
2022-10-03T04:41:43.350Z,1011.47
2022-10-03T04:42:42.497Z,1011.46
2022-10-03T04:43:42.507Z,1011.48
2022-10-03T04:44:42.477Z,1011.46
2022-10-03T04:45:42.484Z,1011.48
2022-10-03T04:46:42.448Z,1011.48
2022-10-03T04:47:42.436Z,1011.51
2022-10-03T04:48:42.556Z,1011.50
2022-10-03T04:49:42.408Z,1011.45
2022-10-03T04:50:42.398Z,1011.50
2022-10-03T04:51:42.396Z,1011.47
2022-10-03T04:52:42.391Z,1011.46
2022-10-03T04:53:42.367Z,1011.45
2022-10-03T04:54:42.347Z,1011.46
2022-10-03T04:55:42.339Z,1011.46
2022-10-03T04:56:42.328Z,1011.45
2022-10-03T04:57:42.347Z,1011.43
2022-10-03T04:58:42.298Z,1011.44
2022-10-03T04:59:42.268Z,1011.45
2022-10-03T05:00:42.314Z,1011.44
2022-10-03T05:01:42.455Z,1011.43
2022-10-03T05:02:42.263Z,1011.42
2022-10-03T05:03:42.237Z,1011.44
2022-10-03T05:04:42.217Z,1011.46
2022-10-03T05:05:42.216Z,1011.45
2022-10-03T05:06:42.195Z,1011.49
2022-10-03T05:07:42.198Z,1011.48
2022-10-03T05:08:42.167Z,1011.53
2022-10-03T05:09:42.148Z,1011.53
2022-10-03T05:10:42.140Z,1011.49
2022-10-03T05:11:42.349Z,1011.53
2022-10-03T05:12:42.129Z,1011.56
2022-10-03T05:13:42.107Z,1011.56
2022-10-03T05:14:42.116Z,1011.57
2022-10-03T05:15:42.087Z,1011.60
2022-10-03T05:16:42.139Z,1011.59
2022-10-03T05:17:42.079Z,1011.59
2022-10-03T05:18:42.039Z,1011.61
2022-10-03T05:19:42.044Z,1011.61
2022-10-03T05:20:42.018Z,1011.61
2022-10-03T05:21:42.388Z,1011.60
2022-10-03T05:22:41.998Z,1011.58
2022-10-03T05:23:41.967Z,1011.60
2022-10-03T05:24:41.971Z,1011.61
2022-10-03T05:25:41.946Z,1011.57
2022-10-03T05:26:46.085Z,1011.61
2022-10-03T05:27:41.956Z,1011.59
2022-10-03T05:28:41.907Z,1011.64
2022-10-03T05:29:41.888Z,1011.63
2022-10-03T05:30:41.876Z,1011.63
2022-10-03T05:31:42.270Z,1011.67
2022-10-03T05:32:41.908Z,1011.65
2022-10-03T05:33:41.841Z,1011.64
2022-10-03T05:34:41.813Z,1011.68
2022-10-03T05:35:41.807Z,1011.71
2022-10-03T05:36:41.806Z,1011.73
2022-10-03T05:37:41.795Z,1011.73
2022-10-03T05:38:41.778Z,1011.74
2022-10-03T05:39:41.758Z,1011.77
2022-10-03T05:40:41.750Z,1011.72
2022-10-03T05:41:42.208Z,1011.73
2022-10-03T05:42:41.738Z,1011.75
2022-10-03T05:43:41.708Z,1011.76
2022-10-03T05:44:41.712Z,1011.77
2022-10-03T05:45:41.792Z,1011.76
2022-10-03T05:46:41.687Z,1011.78
2022-10-03T05:47:41.684Z,1011.78
2022-10-03T05:48:41.649Z,1011.78
2022-10-03T05:49:41.647Z,1011.74
2022-10-03T05:50:41.631Z,1011.74
2022-10-03T05:51:42.134Z,1011.74
2022-10-03T05:52:41.597Z,1011.81
2022-10-03T05:53:41.597Z,1011.80
2022-10-03T05:54:41.567Z,1011.75
2022-10-03T05:55:41.558Z,1011.78
2022-10-03T05:56:41.547Z,1011.72
2022-10-03T05:57:41.559Z,1011.72
2022-10-03T05:58:41.538Z,1011.76
2022-10-03T05:59:41.508Z,1011.73
2022-10-03T06:00:41.505Z,1011.75
2022-10-03T06:01:41.800Z,1011.80
2022-10-03T06:02:41.615Z,1011.82
2022-10-03T06:03:41.458Z,1011.85
2022-10-03T06:04:41.494Z,1011.89
2022-10-03T06:05:41.428Z,1011.90
2022-10-03T06:06:41.418Z,1011.85
2022-10-03T06:07:41.421Z,1011.88
2022-10-03T06:08:41.397Z,1011.89
2022-10-03T06:09:41.379Z,1011.88
2022-10-03T06:10:41.357Z,1011.89
2022-10-03T06:11:41.883Z,1011.89
2022-10-03T06:12:41.388Z,1011.88
2022-10-03T06:13:41.348Z,1011.93
2022-10-03T06:14:41.326Z,1011.93
2022-10-03T06:15:41.347Z,1012.00
2022-10-03T06:16:41.328Z,1011.97
2022-10-03T06:17:43.301Z,1012.00
2022-10-03T06:18:41.258Z,1011.98
2022-10-03T06:19:41.298Z,1011.98
2022-10-03T06:20:41.249Z,1011.96
2022-10-03T06:21:41.651Z,1011.97
2022-10-03T06:22:41.228Z,1012.00
2022-10-03T06:23:41.198Z,1012.01
2022-10-03T06:24:41.179Z,1012.01
2022-10-03T06:25:41.178Z,1012.03
2022-10-03T06:26:41.210Z,1011.98
2022-10-03T06:27:41.166Z,1011.99
2022-10-03T06:28:41.161Z,1011.97
2022-10-03T06:29:41.117Z,1011.99
2022-10-03T06:30:41.134Z,1011.99
2022-10-03T06:31:41.363Z,1012.00
2022-10-03T06:32:41.084Z,1011.99
2022-10-03T06:33:48.202Z,1012.01
2022-10-03T06:34:41.051Z,1012.04
2022-10-03T06:35:41.041Z,1012.05
2022-10-03T06:36:41.024Z,1012.11
2022-10-03T06:37:41.042Z,1012.10
2022-10-03T06:38:41.002Z,1012.10
2022-10-03T06:39:40.991Z,1012.15
2022-10-03T06:40:40.966Z,1012.16
2022-10-03T06:41:41.472Z,1012.16
2022-10-03T06:42:40.973Z,1012.13
2022-10-03T06:43:40.940Z,1012.13
2022-10-03T06:44:40.913Z,1012.15
2022-10-03T06:45:40.912Z,1012.15
2022-10-03T06:46:40.899Z,1012.10
2022-10-03T06:47:40.902Z,1012.13
2022-10-03T06:48:40.875Z,1012.14
2022-10-03T06:49:40.862Z,1012.17
2022-10-03T06:50:40.842Z,1012.13
2022-10-03T06:51:41.247Z,1012.12
2022-10-03T06:52:40.841Z,1012.13
2022-10-03T06:53:40.804Z,1012.11
2022-10-03T06:54:40.791Z,1012.11
2022-10-03T06:55:40.783Z,1012.16
2022-10-03T06:56:40.760Z,1012.16
2022-10-03T06:57:40.761Z,1012.15
2022-10-03T06:58:40.734Z,1012.12
2022-10-03T06:59:40.731Z,1012.16
2022-10-03T07:00:40.710Z,1012.19
2022-10-03T07:01:41.024Z,1012.22
2022-10-03T07:02:40.738Z,1012.22
2022-10-03T07:03:40.671Z,1012.25
2022-10-03T07:04:40.664Z,1012.25
2022-10-03T07:05:41.234Z,1012.25
2022-10-03T07:06:40.625Z,1012.24
2022-10-03T07:07:40.641Z,1012.24
2022-10-03T07:08:40.592Z,1012.23
2022-10-03T07:09:40.602Z,1012.22
2022-10-03T07:10:40.574Z,1012.22
2022-10-03T07:11:40.951Z,1012.25
2022-10-03T07:12:40.540Z,1012.24
2022-10-03T07:13:40.551Z,1012.26
2022-10-03T07:14:40.510Z,1012.24
2022-10-03T07:16:05.100Z,1012.27
2022-10-03T07:16:41.520Z,1012.30
2022-10-03T07:17:40.471Z,1012.27
2022-10-03T07:18:40.470Z,1012.27
2022-10-03T07:19:40.447Z,1012.28
2022-10-03T07:20:40.419Z,1012.31
2022-10-03T07:21:40.885Z,1012.33
2022-10-03T07:22:40.420Z,1012.30
2022-10-03T07:23:40.401Z,1012.28
2022-10-03T07:24:40.384Z,1012.30
2022-10-03T07:25:40.383Z,1012.30
2022-10-03T07:26:40.353Z,1012.28
2022-10-03T07:27:40.370Z,1012.25
2022-10-03T07:28:40.394Z,1012.30
2022-10-03T07:29:40.386Z,1012.30
2022-10-03T07:30:40.312Z,1012.29
2022-10-03T07:31:40.632Z,1012.30
2022-10-03T07:32:40.300Z,1012.34
2022-10-03T07:33:40.272Z,1012.38
2022-10-03T07:34:40.251Z,1012.37
2022-10-03T07:35:40.270Z,1012.39
2022-10-03T07:36:40.233Z,1012.42
2022-10-03T07:37:40.233Z,1012.43
2022-10-03T07:38:40.227Z,1012.47
2022-10-03T07:39:40.192Z,1012.47
2022-10-03T07:40:40.164Z,1012.47
2022-10-03T07:41:40.587Z,1012.46
2022-10-03T07:42:44.745Z,1012.51
2022-10-03T07:43:41.144Z,1012.53
2022-10-03T07:44:40.122Z,1012.52
2022-10-03T07:45:40.103Z,1012.54
2022-10-03T07:46:40.125Z,1012.50
2022-10-03T07:47:40.091Z,1012.52
2022-10-03T07:48:40.066Z,1012.52
2022-10-03T07:49:40.052Z,1012.55
2022-10-03T07:50:40.034Z,1012.56
2022-10-03T07:51:40.241Z,1012.59
2022-10-03T07:52:40.059Z,1012.61
2022-10-03T07:53:40.004Z,1012.59
2022-10-03T07:54:39.970Z,1012.60
2022-10-03T07:55:39.976Z,1012.61
2022-10-03T07:56:39.954Z,1012.61
2022-10-03T07:57:40.036Z,1012.58
2022-10-03T07:58:39.925Z,1012.59
2022-10-03T07:59:39.922Z,1012.59
2022-10-03T08:00:40.786Z,1012.60
2022-10-03T08:01:40.202Z,1012.61
2022-10-03T08:02:39.926Z,1012.61
2022-10-03T08:03:39.933Z,1012.59
2022-10-03T08:04:39.841Z,1012.59
2022-10-03T08:05:39.842Z,1012.64
2022-10-03T08:06:39.821Z,1012.62
2022-10-03T08:07:39.835Z,1012.58
2022-10-03T08:08:39.794Z,1012.57
2022-10-03T08:09:39.784Z,1012.56
2022-10-03T08:10:40.827Z,1012.59
2022-10-03T08:11:40.098Z,1012.62
2022-10-03T08:12:39.986Z,1012.63
2022-10-03T08:13:39.826Z,1012.60
2022-10-03T08:14:39.712Z,1012.60
2022-10-03T08:15:39.726Z,1012.58
2022-10-03T08:16:39.692Z,1012.60
2022-10-03T08:17:39.704Z,1012.60
2022-10-03T08:18:39.694Z,1012.62
2022-10-03T08:19:39.654Z,1012.60
2022-10-03T08:20:39.633Z,1012.59
2022-10-03T08:21:39.889Z,1012.63
2022-10-03T08:22:39.625Z,1012.61
2022-10-03T08:23:39.594Z,1012.65
2022-10-03T08:24:39.584Z,1012.64
2022-10-03T08:25:39.574Z,1012.64
2022-10-03T08:26:39.551Z,1012.62
2022-10-03T08:27:39.565Z,1012.64
2022-10-03T08:28:39.525Z,1012.65
2022-10-03T08:29:39.522Z,1012.64
2022-10-03T08:30:39.498Z,1012.67
2022-10-03T08:31:39.865Z,1012.70
2022-10-03T08:32:39.487Z,1012.70
2022-10-03T08:33:39.555Z,1012.69
2022-10-03T08:34:39.476Z,1012.67
2022-10-03T08:35:39.574Z,1012.65
2022-10-03T08:36:39.444Z,1012.67
2022-10-03T08:37:39.419Z,1012.65
2022-10-03T08:38:39.477Z,1012.68
2022-10-03T08:39:39.408Z,1012.71
2022-10-03T08:40:39.386Z,1012.71
2022-10-03T08:41:39.542Z,1012.73
2022-10-03T08:42:39.347Z,1012.74
2022-10-03T08:43:39.356Z,1012.72
2022-10-03T08:44:39.325Z,1012.72
2022-10-03T08:45:39.324Z,1012.74
2022-10-03T08:46:39.682Z,1012.73
2022-10-03T08:47:39.337Z,1012.73
2022-10-03T08:48:39.287Z,1012.72
2022-10-03T08:49:39.269Z,1012.71
2022-10-03T08:50:39.226Z,1012.73
2022-10-03T08:51:39.466Z,1012.76
2022-10-03T08:52:39.208Z,1012.78
2022-10-03T08:53:39.239Z,1012.76
2022-10-03T08:54:39.186Z,1012.77
2022-10-03T08:55:39.167Z,1012.77
2022-10-03T08:56:39.199Z,1012.77
2022-10-03T08:57:39.137Z,1012.79
2022-10-03T08:58:39.155Z,1012.81
2022-10-03T08:59:39.115Z,1012.83
2022-10-03T09:00:39.107Z,1012.82
2022-10-03T09:01:39.414Z,1012.80
2022-10-03T09:02:39.132Z,1012.79
2022-10-03T09:03:42.866Z,1012.81
2022-10-03T09:04:39.057Z,1012.85
2022-10-03T09:05:39.041Z,1012.81
2022-10-03T09:06:52.739Z,1012.84
2022-10-03T09:07:40.024Z,1012.83
2022-10-03T09:08:39.025Z,1012.83
2022-10-03T09:09:38.987Z,1012.83
2022-10-03T09:10:38.986Z,1012.83
2022-10-03T09:11:38.966Z,1012.85
2022-10-03T09:12:38.963Z,1012.83
2022-10-03T09:13:38.967Z,1012.82
2022-10-03T09:14:38.924Z,1012.86
2022-10-03T09:15:38.991Z,1012.88
2022-10-03T09:16:39.213Z,1012.88
2022-10-03T09:17:38.877Z,1012.86
2022-10-03T09:18:38.898Z,1012.85
2022-10-03T09:19:38.857Z,1012.85
2022-10-03T09:20:38.849Z,1012.81
2022-10-03T09:21:38.827Z,1012.85
2022-10-03T09:22:38.818Z,1012.84
2022-10-03T09:23:38.816Z,1012.84
2022-10-03T09:24:38.783Z,1012.84
2022-10-03T09:25:38.756Z,1012.85
2022-10-03T09:26:39.004Z,1012.86
2022-10-03T09:27:38.748Z,1012.85
2022-10-03T09:28:38.810Z,1012.88
2022-10-03T09:29:38.718Z,1012.85
2022-10-03T09:30:38.708Z,1012.87
2022-10-03T09:31:39.185Z,1012.83
2022-10-03T09:32:38.699Z,1012.83
2022-10-03T09:33:38.669Z,1012.83
2022-10-03T09:34:38.678Z,1012.83
2022-10-03T09:35:38.651Z,1012.88
2022-10-03T09:36:38.648Z,1012.88
2022-10-03T09:37:38.617Z,1012.87
2022-10-03T09:38:38.730Z,1012.86
2022-10-03T09:39:38.588Z,1012.83
2022-10-03T09:40:38.596Z,1012.84
2022-10-03T09:41:38.867Z,1012.86
2022-10-03T09:42:38.560Z,1012.81
2022-10-03T09:43:38.562Z,1012.82
2022-10-03T09:44:38.520Z,1012.82
2022-10-03T09:45:38.509Z,1012.79
2022-10-03T09:46:40.891Z,1012.81
2022-10-03T09:47:38.493Z,1012.82
2022-10-03T09:48:38.567Z,1012.80
2022-10-03T09:49:38.458Z,1012.80
2022-10-03T09:50:38.528Z,1012.80
2022-10-03T09:51:38.822Z,1012.82
2022-10-03T09:52:38.441Z,1012.81
2022-10-03T09:53:38.461Z,1012.81
2022-10-03T09:54:38.388Z,1012.79
2022-10-03T09:55:38.378Z,1012.78
2022-10-03T09:56:38.690Z,1012.79
2022-10-03T09:57:38.360Z,1012.77
2022-10-03T09:58:38.401Z,1012.78
2022-10-03T09:59:38.389Z,1012.74
2022-10-03T10:00:38.336Z,1012.69
2022-10-03T10:01:38.543Z,1012.71
2022-10-03T10:02:38.290Z,1012.68
2022-10-03T10:03:38.377Z,1012.63
2022-10-03T10:04:54.153Z,1012.68
2022-10-03T10:05:39.247Z,1012.64
2022-10-03T10:06:38.539Z,1012.64
2022-10-03T10:07:38.229Z,1012.61
2022-10-03T10:08:38.210Z,1012.64
2022-10-03T10:09:38.208Z,1012.61
2022-10-03T10:10:38.201Z,1012.64
2022-10-03T10:11:38.167Z,1012.63
2022-10-03T10:12:38.160Z,1012.65
2022-10-03T10:14:03.289Z,1012.65
2022-10-03T10:14:39.172Z,1012.67
2022-10-03T10:15:38.141Z,1012.60
2022-10-03T10:16:38.733Z,1012.60
2022-10-03T10:17:38.070Z,1012.57
2022-10-03T10:18:38.080Z,1012.64
2022-10-03T10:19:38.078Z,1012.62
2022-10-03T10:20:38.074Z,1012.60
2022-10-03T10:21:38.048Z,1012.63
2022-10-03T10:22:38.031Z,1012.65
2022-10-03T10:23:38.015Z,1012.63
2022-10-03T10:24:38.020Z,1012.64
2022-10-03T10:25:37.982Z,1012.65
2022-10-03T10:26:37.982Z,1012.62
2022-10-03T10:27:37.950Z,1012.59
2022-10-03T10:28:38.163Z,1012.60
2022-10-03T10:29:37.948Z,1012.60
2022-10-03T10:30:37.921Z,1012.58
2022-10-03T10:31:37.935Z,1012.60
2022-10-03T10:32:37.893Z,1012.62
2022-10-03T10:33:37.879Z,1012.61
2022-10-03T10:34:37.881Z,1012.55
2022-10-03T10:35:37.850Z,1012.61
2022-10-03T10:36:38.237Z,1012.57
2022-10-03T10:37:40.640Z,1012.55
2022-10-03T10:38:37.883Z,1012.54
2022-10-03T10:39:37.819Z,1012.58
2022-10-03T10:40:37.982Z,1012.58
2022-10-03T10:41:41.914Z,1012.58
2022-10-03T10:42:38.290Z,1012.61
2022-10-03T10:43:37.751Z,1012.63
2022-10-03T10:44:37.771Z,1012.60
2022-10-03T10:45:37.723Z,1012.63
2022-10-03T10:46:38.211Z,1012.62
2022-10-03T10:47:37.692Z,1012.58
2022-10-03T10:48:37.694Z,1012.58
2022-10-03T10:49:37.681Z,1012.54
2022-10-03T10:50:37.665Z,1012.56
2022-10-03T10:51:37.640Z,1012.52
2022-10-03T10:52:37.643Z,1012.51
2022-10-03T10:53:37.622Z,1012.53
2022-10-03T10:54:37.695Z,1012.53
2022-10-03T10:55:37.593Z,1012.54
2022-10-03T10:56:37.964Z,1012.52
2022-10-03T10:57:37.543Z,1012.49
2022-10-03T10:58:37.614Z,1012.51
2022-10-03T10:59:37.562Z,1012.50
2022-10-03T11:00:37.583Z,1012.52
2022-10-03T11:01:37.512Z,1012.51
2022-10-03T11:02:37.503Z,1012.53
2022-10-03T11:03:37.576Z,1012.49
2022-10-03T11:04:37.517Z,1012.53
2022-10-03T11:05:37.462Z,1012.53
2022-10-03T11:06:37.715Z,1012.53
2022-10-03T11:07:37.434Z,1012.51
2022-10-03T11:08:37.423Z,1012.51
2022-10-03T11:09:37.414Z,1012.51
2022-10-03T11:10:37.395Z,1012.49
2022-10-03T11:11:37.383Z,1012.51
2022-10-03T11:12:37.385Z,1012.51
2022-10-03T11:13:37.355Z,1012.51
2022-10-03T11:14:37.365Z,1012.51
2022-10-03T11:15:37.333Z,1012.51
2022-10-03T11:16:37.671Z,1012.48
2022-10-03T11:17:37.295Z,1012.49
2022-10-03T11:18:37.305Z,1012.46
2022-10-03T11:19:37.292Z,1012.43
2022-10-03T11:20:37.265Z,1012.41
2022-10-03T11:21:37.235Z,1012.42
2022-10-03T11:22:37.235Z,1012.41
2022-10-03T11:23:37.224Z,1012.45
2022-10-03T11:24:37.219Z,1012.44
2022-10-03T11:25:37.214Z,1012.44
2022-10-03T11:26:37.434Z,1012.43
2022-10-03T11:27:37.173Z,1012.47
2022-10-03T11:28:37.279Z,1012.45
2022-10-03T11:29:37.137Z,1012.41
2022-10-03T11:30:37.147Z,1012.41
2022-10-03T11:31:37.193Z,1012.40
2022-10-03T11:32:37.105Z,1012.31
2022-10-03T11:33:37.084Z,1012.34
2022-10-03T11:34:37.076Z,1012.34
2022-10-03T11:35:42.153Z,1012.33
2022-10-03T11:36:38.456Z,1012.33
2022-10-03T11:37:37.037Z,1012.33
2022-10-03T11:38:37.054Z,1012.31
2022-10-03T11:39:37.013Z,1012.28
2022-10-03T11:40:37.019Z,1012.24
2022-10-03T11:41:36.985Z,1012.24
2022-10-03T11:42:36.967Z,1012.23
2022-10-03T11:43:37.003Z,1012.20
2022-10-03T11:44:36.945Z,1012.21
2022-10-03T11:45:36.978Z,1012.19
2022-10-03T11:46:37.094Z,1012.21
2022-10-03T11:47:36.899Z,1012.23
2022-10-03T11:48:36.933Z,1012.26
2022-10-03T11:49:36.906Z,1012.27
2022-10-03T11:50:36.866Z,1012.27
2022-10-03T11:51:36.847Z,1012.25
2022-10-03T11:52:36.846Z,1012.23
2022-10-03T11:53:36.826Z,1012.24
2022-10-03T11:54:36.853Z,1012.23
2022-10-03T11:55:36.829Z,1012.22
2022-10-03T11:56:36.971Z,1012.24
2022-10-03T11:57:36.797Z,1012.24
2022-10-03T11:58:36.762Z,1012.21
2022-10-03T11:59:36.740Z,1012.25
2022-10-03T12:00:36.778Z,1012.23
2022-10-03T12:01:36.870Z,1012.24
2022-10-03T12:02:36.880Z,1012.20
2022-10-03T12:03:36.751Z,1012.21
2022-10-03T12:04:36.687Z,1012.18
2022-10-03T12:05:36.668Z,1012.17